sensor_id;sensor_type;location;lat;lon;timestamp;P1;durP1;ratioP1;P2;durP2;ratioP2
42668;SDS011;29384;42.028;21.388;2023-04-25T00:05:01;5.20;;;3.30;;
42668;SDS011;29384;42.028;21.388;2023-04-25T00:07:29;4.15;;;3.58;;
42668;SDS011;29384;42.028;21.388;2023-04-25T00:09:56;4.05;;;2.63;;
42668;SDS011;29384;42.028;21.388;2023-04-25T00:12:21;5.30;;;2.70;;
42668;SDS011;29384;42.028;21.388;2023-04-25T00:14:47;4.63;;;4.22;;
42668;SDS011;29384;42.028;21.388;2023-04-25T00:17:14;7.40;;;3.95;;
42668;SDS011;29384;42.028;21.388;2023-04-25T00:19:40;6.63;;;4.47;;
42668;SDS011;29384;42.028;21.388;2023-04-25T00:22:05;4.55;;;4.25;;
42668;SDS011;29384;42.028;21.388;2023-04-25T00:24:30;4.90;;;3.75;;
42668;SDS011;29384;42.028;21.388;2023-04-25T00:26:56;4.95;;;4.35;;
42668;SDS011;29384;42.028;21.388;2023-04-25T00:29:21;4.20;;;3.88;;
42668;SDS011;29384;42.028;21.388;2023-04-25T00:34:49;4.68;;;3.65;;
42668;SDS011;29384;42.028;21.388;2023-04-25T00:37:14;4.00;;;3.70;;
42668;SDS011;29384;42.028;21.388;2023-04-25T00:39:40;9.07;;;4.43;;
42668;SDS011;29384;42.028;21.388;2023-04-25T00:42:05;4.78;;;4.43;;
42668;SDS011;29384;42.028;21.388;2023-04-25T00:44:31;5.35;;;4.88;;
42668;SDS011;29384;42.028;21.388;2023-04-25T00:49:59;5.57;;;5.07;;
42668;SDS011;29384;42.028;21.388;2023-04-25T00:52:25;7.60;;;6.15;;
42668;SDS011;29384;42.028;21.388;2023-04-25T00:54:50;11.80;;;5.53;;
42668;SDS011;29384;42.028;21.388;2023-04-25T00:57:16;4.53;;;4.15;;
42668;SDS011;29384;42.028;21.388;2023-04-25T00:59:41;4.80;;;4.47;;
42668;SDS011;29384;42.028;21.388;2023-04-25T01:05:12;6.82;;;4.47;;
42668;SDS011;29384;42.028;21.388;2023-04-25T01:07:38;5.05;;;4.70;;
42668;SDS011;29384;42.028;21.388;2023-04-25T01:10:04;17.48;;;5.03;;
42668;SDS011;29384;42.028;21.388;2023-04-25T01:12:31;6.43;;;5.82;;
42668;SDS011;29384;42.028;21.388;2023-04-25T01:14:56;6.30;;;5.72;;
42668;SDS011;29384;42.028;21.388;2023-04-25T01:20:24;10.90;;;4.22;;
42668;SDS011;29384;42.028;21.388;2023-04-25T01:22:51;6.65;;;4.70;;
42668;SDS011;29384;42.028;21.388;2023-04-25T01:25:17;5.55;;;5.10;;
42668;SDS011;29384;42.028;21.388;2023-04-25T01:27:43;5.72;;;5.28;;
42668;SDS011;29384;42.028;21.388;2023-04-25T01:30:09;8.30;;;6.22;;
42668;SDS011;29384;42.028;21.388;2023-04-25T01:32:34;6.35;;;5.60;;
42668;SDS011;29384;42.028;21.388;2023-04-25T01:35:10;7.72;;;4.18;;
42668;SDS011;29384;42.028;21.388;2023-04-25T01:37:42;3.75;;;3.45;;
42668;SDS011;29384;42.028;21.388;2023-04-25T01:40:08;4.80;;;4.32;;
42668;SDS011;29384;42.028;21.388;2023-04-25T01:42:34;5.28;;;4.85;;
42668;SDS011;29384;42.028;21.388;2023-04-25T01:45:00;5.32;;;4.95;;
42668;SDS011;29384;42.028;21.388;2023-04-25T01:50:28;5.80;;;5.40;;
42668;SDS011;29384;42.028;21.388;2023-04-25T01:52:54;8.48;;;5.18;;
42668;SDS011;29384;42.028;21.388;2023-04-25T01:55:20;4.25;;;3.97;;
42668;SDS011;29384;42.028;21.388;2023-04-25T01:57:45;6.05;;;5.43;;
42668;SDS011;29384;42.028;21.388;2023-04-25T02:00:10;5.43;;;4.93;;
42668;SDS011;29384;42.028;21.388;2023-04-25T02:05:39;6.22;;;5.00;;
42668;SDS011;29384;42.028;21.388;2023-04-25T02:08:05;5.63;;;5.10;;
42668;SDS011;29384;42.028;21.388;2023-04-25T02:10:30;9.13;;;5.57;;
42668;SDS011;29384;42.028;21.388;2023-04-25T02:12:56;5.97;;;5.00;;
42668;SDS011;29384;42.028;21.388;2023-04-25T02:15:21;5.00;;;4.53;;
42668;SDS011;29384;42.028;21.388;2023-04-25T02:20:49;8.25;;;6.03;;
42668;SDS011;29384;42.028;21.388;2023-04-25T02:23:15;7.93;;;6.45;;
42668;SDS011;29384;42.028;21.388;2023-04-25T02:25:40;6.63;;;6.03;;
42668;SDS011;29384;42.028;21.388;2023-04-25T02:28:05;7.15;;;6.40;;
42668;SDS011;29384;42.028;21.388;2023-04-25T02:30:31;6.68;;;5.00;;
42668;SDS011;29384;42.028;21.388;2023-04-25T02:32:56;7.13;;;4.97;;
42668;SDS011;29384;42.028;21.388;2023-04-25T02:35:21;5.28;;;4.85;;
42668;SDS011;29384;42.028;21.388;2023-04-25T02:37:47;8.02;;;5.63;;
42668;SDS011;29384;42.028;21.388;2023-04-25T02:40:12;5.93;;;4.88;;
42668;SDS011;29384;42.028;21.388;2023-04-25T02:42:37;9.30;;;4.55;;
42668;SDS011;29384;42.028;21.388;2023-04-25T02:45:03;4.93;;;4.45;;
42668;SDS011;29384;42.028;21.388;2023-04-25T02:50:31;9.95;;;4.57;;
42668;SDS011;29384;42.028;21.388;2023-04-25T02:52:56;7.15;;;4.80;;
42668;SDS011;29384;42.028;21.388;2023-04-25T02:55:22;4.72;;;4.40;;
42668;SDS011;29384;42.028;21.388;2023-04-25T02:57:47;4.13;;;3.83;;
42668;SDS011;29384;42.028;21.388;2023-04-25T03:00:12;10.90;;;6.03;;
42668;SDS011;29384;42.028;21.388;2023-04-25T03:05:42;11.40;;;6.07;;
42668;SDS011;29384;42.028;21.388;2023-04-25T03:08:07;7.25;;;6.65;;
42668;SDS011;29384;42.028;21.388;2023-04-25T03:10:32;8.80;;;6.13;;
42668;SDS011;29384;42.028;21.388;2023-04-25T03:12:58;5.85;;;5.35;;
42668;SDS011;29384;42.028;21.388;2023-04-25T03:15:23;6.28;;;5.60;;
42668;SDS011;29384;42.028;21.388;2023-04-25T03:20:51;6.72;;;6.13;;
42668;SDS011;29384;42.028;21.388;2023-04-25T03:23:16;8.00;;;6.18;;
42668;SDS011;29384;42.028;21.388;2023-04-25T03:25:42;6.80;;;6.00;;
42668;SDS011;29384;42.028;21.388;2023-04-25T03:28:07;7.45;;;5.95;;
42668;SDS011;29384;42.028;21.388;2023-04-25T03:30:33;8.10;;;7.28;;
42668;SDS011;29384;42.028;21.388;2023-04-25T03:36:01;5.32;;;4.93;;
42668;SDS011;29384;42.028;21.388;2023-04-25T03:38:27;5.55;;;5.20;;
42668;SDS011;29384;42.028;21.388;2023-04-25T03:40:52;6.95;;;6.10;;
42668;SDS011;29384;42.028;21.388;2023-04-25T03:43:18;8.02;;;5.15;;
42668;SDS011;29384;42.028;21.388;2023-04-25T03:45:43;6.38;;;5.65;;
42668;SDS011;29384;42.028;21.388;2023-04-25T03:51:11;7.75;;;4.93;;
42668;SDS011;29384;42.028;21.388;2023-04-25T03:53:37;8.85;;;5.55;;
42668;SDS011;29384;42.028;21.388;2023-04-25T03:56:02;7.18;;;4.85;;
42668;SDS011;29384;42.028;21.388;2023-04-25T03:58:27;5.03;;;4.53;;
42668;SDS011;29384;42.028;21.388;2023-04-25T04:00:52;10.50;;;4.72;;
42668;SDS011;29384;42.028;21.388;2023-04-25T04:06:39;4.53;;;4.22;;
42668;SDS011;29384;42.028;21.388;2023-04-25T04:09:04;4.10;;;3.90;;
42668;SDS011;29384;42.028;21.388;2023-04-25T04:11:32;4.32;;;4.00;;
42668;SDS011;29384;42.028;21.388;2023-04-25T04:13:58;13.57;;;4.10;;
42668;SDS011;29384;42.028;21.388;2023-04-25T04:16:23;3.72;;;3.22;;
42668;SDS011;29384;42.028;21.388;2023-04-25T04:18:48;9.63;;;4.35;;
42668;SDS011;29384;42.028;21.388;2023-04-25T04:21:14;5.97;;;4.10;;
42668;SDS011;29384;42.028;21.388;2023-04-25T04:23:40;4.63;;;4.30;;
42668;SDS011;29384;42.028;21.388;2023-04-25T04:26:05;6.25;;;4.20;;
42668;SDS011;29384;42.028;21.388;2023-04-25T04:28:32;4.75;;;4.45;;
42668;SDS011;29384;42.028;21.388;2023-04-25T04:30:57;5.70;;;5.07;;
42668;SDS011;29384;42.028;21.388;2023-04-25T04:36:25;6.53;;;5.90;;
42668;SDS011;29384;42.028;21.388;2023-04-25T04:38:51;4.68;;;4.38;;
42668;SDS011;29384;42.028;21.388;2023-04-25T04:41:17;7.60;;;3.70;;
42668;SDS011;29384;42.028;21.388;2023-04-25T04:43:44;4.82;;;4.43;;
42668;SDS011;29384;42.028;21.388;2023-04-25T04:46:09;5.07;;;4.70;;
42668;SDS011;29384;42.028;21.388;2023-04-25T04:48:35;5.68;;;5.25;;
42668;SDS011;29384;42.028;21.388;2023-04-25T04:51:00;6.07;;;4.63;;
42668;SDS011;29384;42.028;21.388;2023-04-25T04:53:26;5.15;;;4.78;;
42668;SDS011;29384;42.028;21.388;2023-04-25T04:55:51;4.65;;;4.25;;
42668;SDS011;29384;42.028;21.388;2023-04-25T04:58:17;3.30;;;3.10;;
42668;SDS011;29384;42.028;21.388;2023-04-25T05:00:42;3.70;;;3.50;;
42668;SDS011;29384;42.028;21.388;2023-04-25T05:06:24;4.47;;;4.18;;
42668;SDS011;29384;42.028;21.388;2023-04-25T05:08:50;3.92;;;3.63;;
42668;SDS011;29384;42.028;21.388;2023-04-25T05:11:16;2.75;;;2.63;;
42668;SDS011;29384;42.028;21.388;2023-04-25T05:13:41;3.70;;;3.47;;
42668;SDS011;29384;42.028;21.388;2023-04-25T05:16:06;3.20;;;3.00;;
42668;SDS011;29384;42.028;21.388;2023-04-25T05:21:34;4.80;;;3.13;;
42668;SDS011;29384;42.028;21.388;2023-04-25T05:24:00;3.17;;;2.63;;
42668;SDS011;29384;42.028;21.388;2023-04-25T05:26:25;2.67;;;2.58;;
42668;SDS011;29384;42.028;21.388;2023-04-25T05:28:50;5.38;;;3.20;;
42668;SDS011;29384;42.028;21.388;2023-04-25T05:31:16;3.28;;;3.05;;
42668;SDS011;29384;42.028;21.388;2023-04-25T05:36:44;6.43;;;2.63;;
42668;SDS011;29384;42.028;21.388;2023-04-25T05:39:13;2.92;;;2.72;;
42668;SDS011;29384;42.028;21.388;2023-04-25T05:41:38;4.72;;;3.17;;
42668;SDS011;29384;42.028;21.388;2023-04-25T05:44:04;4.07;;;3.67;;
42668;SDS011;29384;42.028;21.388;2023-04-25T05:46:30;4.97;;;4.57;;
42668;SDS011;29384;42.028;21.388;2023-04-25T05:48:55;4.53;;;3.90;;
42668;SDS011;29384;42.028;21.388;2023-04-25T05:51:21;6.32;;;4.65;;
42668;SDS011;29384;42.028;21.388;2023-04-25T05:53:46;6.72;;;5.78;;
42668;SDS011;29384;42.028;21.388;2023-04-25T05:56:11;4.40;;;4.10;;
42668;SDS011;29384;42.028;21.388;2023-04-25T05:58:36;11.90;;;6.38;;
42668;SDS011;29384;42.028;21.388;2023-04-25T06:01:02;5.80;;;4.97;;
42668;SDS011;29384;42.028;21.388;2023-04-25T06:06:30;9.52;;;4.85;;
42668;SDS011;29384;42.028;21.388;2023-04-25T06:08:55;5.70;;;5.22;;
42668;SDS011;29384;42.028;21.388;2023-04-25T06:11:21;3.80;;;3.60;;
42668;SDS011;29384;42.028;21.388;2023-04-25T06:13:46;7.35;;;4.95;;
42668;SDS011;29384;42.028;21.388;2023-04-25T06:16:11;10.32;;;4.80;;
42668;SDS011;29384;42.028;21.388;2023-04-25T06:21:39;7.57;;;6.82;;
42668;SDS011;29384;42.028;21.388;2023-04-25T06:24:05;10.38;;;6.95;;
42668;SDS011;29384;42.028;21.388;2023-04-25T06:26:30;8.57;;;6.65;;
42668;SDS011;29384;42.028;21.388;2023-04-25T06:28:55;10.48;;;9.23;;
42668;SDS011;29384;42.028;21.388;2023-04-25T06:31:21;10.30;;;9.20;;
42668;SDS011;29384;42.028;21.388;2023-04-25T06:36:48;22.30;;;12.25;;
42668;SDS011;29384;42.028;21.388;2023-04-25T06:39:14;22.33;;;12.68;;
42668;SDS011;29384;42.028;21.388;2023-04-25T06:41:39;48.88;;;13.60;;
42668;SDS011;29384;42.028;21.388;2023-04-25T06:44:04;18.50;;;11.20;;
42668;SDS011;29384;42.028;21.388;2023-04-25T06:46:30;17.08;;;10.38;;
42668;SDS011;29384;42.028;21.388;2023-04-25T06:51:58;16.08;;;11.70;;
42668;SDS011;29384;42.028;21.388;2023-04-25T06:54:23;25.80;;;14.43;;
42668;SDS011;29384;42.028;21.388;2023-04-25T06:56:49;19.75;;;13.50;;
42668;SDS011;29384;42.028;21.388;2023-04-25T06:59:15;23.67;;;13.80;;
42668;SDS011;29384;42.028;21.388;2023-04-25T07:01:40;31.13;;;14.80;;
42668;SDS011;29384;42.028;21.388;2023-04-25T07:07:09;37.95;;;13.38;;
42668;SDS011;29384;42.028;21.388;2023-04-25T07:09:34;21.60;;;12.60;;
42668;SDS011;29384;42.028;21.388;2023-04-25T07:12:00;15.85;;;9.43;;
42668;SDS011;29384;42.028;21.388;2023-04-25T07:14:26;23.83;;;11.43;;
42668;SDS011;29384;42.028;21.388;2023-04-25T07:16:52;13.75;;;10.00;;
42668;SDS011;29384;42.028;21.388;2023-04-25T07:22:20;20.50;;;9.48;;
42668;SDS011;29384;42.028;21.388;2023-04-25T07:24:45;14.48;;;9.30;;
42668;SDS011;29384;42.028;21.388;2023-04-25T07:27:13;14.70;;;7.80;;
42668;SDS011;29384;42.028;21.388;2023-04-25T07:29:39;9.93;;;6.53;;
42668;SDS011;29384;42.028;21.388;2023-04-25T07:32:04;12.05;;;7.57;;
42668;SDS011;29384;42.028;21.388;2023-04-25T07:37:33;7.82;;;6.22;;
42668;SDS011;29384;42.028;21.388;2023-04-25T07:39:58;9.27;;;7.40;;
42668;SDS011;29384;42.028;21.388;2023-04-25T07:42:23;5.50;;;4.95;;
42668;SDS011;29384;42.028;21.388;2023-04-25T07:44:48;15.82;;;5.30;;
42668;SDS011;29384;42.028;21.388;2023-04-25T07:47:14;7.63;;;5.95;;
42668;SDS011;29384;42.028;21.388;2023-04-25T07:49:39;8.90;;;5.53;;
42668;SDS011;29384;42.028;21.388;2023-04-25T07:52:05;7.15;;;6.07;;
42668;SDS011;29384;42.028;21.388;2023-04-25T07:54:34;7.00;;;5.32;;
42668;SDS011;29384;42.028;21.388;2023-04-25T07:56:59;7.57;;;5.35;;
42668;SDS011;29384;42.028;21.388;2023-04-25T07:59:24;6.32;;;4.78;;
42668;SDS011;29384;42.028;21.388;2023-04-25T08:01:50;6.05;;;5.50;;
42668;SDS011;29384;42.028;21.388;2023-04-25T08:07:18;12.57;;;5.75;;
42668;SDS011;29384;42.028;21.388;2023-04-25T08:09:43;7.55;;;5.65;;
42668;SDS011;29384;42.028;21.388;2023-04-25T08:12:09;5.47;;;4.75;;
42668;SDS011;29384;42.028;21.388;2023-04-25T08:14:34;10.07;;;5.47;;
42668;SDS011;29384;42.028;21.388;2023-04-25T08:17:04;9.35;;;5.65;;
42668;SDS011;29384;42.028;21.388;2023-04-25T08:22:32;14.85;;;7.07;;
42668;SDS011;29384;42.028;21.388;2023-04-25T08:24:58;8.82;;;5.72;;
42668;SDS011;29384;42.028;21.388;2023-04-25T08:27:24;9.30;;;5.53;;
42668;SDS011;29384;42.028;21.388;2023-04-25T08:29:49;7.88;;;6.13;;
42668;SDS011;29384;42.028;21.388;2023-04-25T08:32:15;5.18;;;3.95;;
42668;SDS011;29384;42.028;21.388;2023-04-25T08:37:44;2.28;;;0.88;;
42668;SDS011;29384;42.028;21.388;2023-04-25T08:40:11;18.35;;;2.35;;
42668;SDS011;29384;42.028;21.388;2023-04-25T08:42:36;4.78;;;2.30;;
42668;SDS011;29384;42.028;21.388;2023-04-25T08:45:02;1.80;;;1.70;;
42668;SDS011;29384;42.028;21.388;2023-04-25T08:47:31;3.17;;;1.75;;
42668;SDS011;29384;42.028;21.388;2023-04-25T08:49:58;3.70;;;3.15;;
42668;SDS011;29384;42.028;21.388;2023-04-25T08:52:24;3.78;;;3.33;;
42668;SDS011;29384;42.028;21.388;2023-04-25T08:54:52;10.57;;;3.25;;
42668;SDS011;29384;42.028;21.388;2023-04-25T08:57:17;2.28;;;2.03;;
42668;SDS011;29384;42.028;21.388;2023-04-25T08:59:43;2.80;;;2.35;;
42668;SDS011;29384;42.028;21.388;2023-04-25T09:02:11;2.15;;;2.00;;
42668;SDS011;29384;42.028;21.388;2023-04-25T09:07:42;2.00;;;1.90;;
42668;SDS011;29384;42.028;21.388;2023-04-25T09:10:07;4.43;;;2.15;;
42668;SDS011;29384;42.028;21.388;2023-04-25T09:12:33;2.38;;;2.20;;
42668;SDS011;29384;42.028;21.388;2023-04-25T09:15:09;3.28;;;1.98;;
42668;SDS011;29384;42.028;21.388;2023-04-25T09:17:35;1.10;;;0.98;;
42668;SDS011;29384;42.028;21.388;2023-04-25T09:23:23;4.65;;;1.80;;
42668;SDS011;29384;42.028;21.388;2023-04-25T09:25:49;2.35;;;1.58;;
42668;SDS011;29384;42.028;21.388;2023-04-25T09:28:14;1.98;;;1.67;;
42668;SDS011;29384;42.028;21.388;2023-04-25T09:30:40;1.55;;;1.45;;
42668;SDS011;29384;42.028;21.388;2023-04-25T09:33:06;0.70;;;0.70;;
42668;SDS011;29384;42.028;21.388;2023-04-25T09:35:38;1.23;;;1.05;;
42668;SDS011;29384;42.028;21.388;2023-04-25T09:38:07;1.15;;;1.00;;
42668;SDS011;29384;42.028;21.388;2023-04-25T09:40:33;1.25;;;1.15;;
42668;SDS011;29384;42.028;21.388;2023-04-25T09:42:58;1.40;;;1.30;;
42668;SDS011;29384;42.028;21.388;2023-04-25T09:45:24;1.80;;;1.67;;
42668;SDS011;29384;42.028;21.388;2023-04-25T09:47:49;5.55;;;1.50;;
42668;SDS011;29384;42.028;21.388;2023-04-25T09:50:15;2.30;;;0.90;;
42668;SDS011;29384;42.028;21.388;2023-04-25T09:52:41;2.25;;;1.10;;
42668;SDS011;29384;42.028;21.388;2023-04-25T09:55:06;1.02;;;1.02;;
42668;SDS011;29384;42.028;21.388;2023-04-25T09:57:32;2.50;;;2.30;;
42668;SDS011;29384;42.028;21.388;2023-04-25T09:59:57;1.88;;;1.77;;
42668;SDS011;29384;42.028;21.388;2023-04-25T10:02:25;5.05;;;2.70;;
42668;SDS011;29384;42.028;21.388;2023-04-25T10:07:54;3.95;;;2.35;;
42668;SDS011;29384;42.028;21.388;2023-04-25T10:10:20;1.52;;;1.42;;
42668;SDS011;29384;42.028;21.388;2023-04-25T10:12:50;2.25;;;1.42;;
42668;SDS011;29384;42.028;21.388;2023-04-25T10:15:16;1.05;;;0.93;;
42668;SDS011;29384;42.028;21.388;2023-04-25T10:17:41;1.38;;;1.30;;
42668;SDS011;29384;42.028;21.388;2023-04-25T10:23:12;5.30;;;1.73;;
42668;SDS011;29384;42.028;21.388;2023-04-25T10:25:38;7.00;;;2.00;;
42668;SDS011;29384;42.028;21.388;2023-04-25T10:28:03;1.40;;;0.90;;
42668;SDS011;29384;42.028;21.388;2023-04-25T10:30:29;1.02;;;1.02;;
42668;SDS011;29384;42.028;21.388;2023-04-25T10:32:55;1.45;;;0.32;;
42668;SDS011;29384;42.028;21.388;2023-04-25T10:38:23;7.53;;;2.10;;
42668;SDS011;29384;42.028;21.388;2023-04-25T10:41:04;4.00;;;2.10;;
42668;SDS011;29384;42.028;21.388;2023-04-25T10:43:42;6.88;;;2.30;;
42668;SDS011;29384;42.028;21.388;2023-04-25T10:48:43;2.33;;;0.77;;
42668;SDS011;29384;42.028;21.388;2023-04-25T10:51:10;0.93;;;0.40;;
42668;SDS011;29384;42.028;21.388;2023-04-25T10:53:36;0.20;;;0.20;;
42668;SDS011;29384;42.028;21.388;2023-04-25T10:56:11;0.10;;;0.10;;
42668;SDS011;29384;42.028;21.388;2023-04-25T10:58:41;0.10;;;0.10;;
42668;SDS011;29384;42.028;21.388;2023-04-25T11:01:06;0.50;;;0.40;;
42668;SDS011;29384;42.028;21.388;2023-04-25T11:03:31;2.67;;;0.32;;
42668;SDS011;29384;42.028;21.388;2023-04-25T11:05:57;0.25;;;0.25;;
42668;SDS011;29384;42.028;21.388;2023-04-25T11:08:37;0.10;;;0.10;;
42668;SDS011;29384;42.028;21.388;2023-04-25T11:11:08;0.22;;;0.10;;
42668;SDS011;29384;42.028;21.388;2023-04-25T11:13:34;0.10;;;0.10;;
42668;SDS011;29384;42.028;21.388;2023-04-25T11:15:59;0.47;;;0.30;;
42668;SDS011;29384;42.028;21.388;2023-04-25T11:18:25;4.13;;;0.32;;
42668;SDS011;29384;42.028;21.388;2023-04-25T11:20:51;1.63;;;0.70;;
42668;SDS011;29384;42.028;21.388;2023-04-25T11:23:16;0.30;;;0.30;;
42668;SDS011;29384;42.028;21.388;2023-04-25T11:25:42;0.63;;;0.47;;
42668;SDS011;29384;42.028;21.388;2023-04-25T11:28:07;0.13;;;0.13;;
42668;SDS011;29384;42.028;21.388;2023-04-25T11:30:32;0.43;;;0.43;;
42668;SDS011;29384;42.028;21.388;2023-04-25T11:32:58;2.65;;;0.45;;
42668;SDS011;29384;42.028;21.388;2023-04-25T11:38:26;1.02;;;0.38;;
42668;SDS011;29384;42.028;21.388;2023-04-25T11:40:52;0.70;;;0.47;;
42668;SDS011;29384;42.028;21.388;2023-04-25T11:43:17;0.20;;;0.20;;
42668;SDS011;29384;42.028;21.388;2023-04-25T11:45:45;0.25;;;0.25;;
42668;SDS011;29384;42.028;21.388;2023-04-25T11:48:11;0.30;;;0.30;;
42668;SDS011;29384;42.028;21.388;2023-04-25T11:53:40;0.20;;;0.20;;
42668;SDS011;29384;42.028;21.388;2023-04-25T11:56:09;0.80;;;0.52;;
42668;SDS011;29384;42.028;21.388;2023-04-25T11:58:53;0.55;;;0.22;;
42668;SDS011;29384;42.028;21.388;2023-04-25T12:01:25;0.55;;;0.55;;
42668;SDS011;29384;42.028;21.388;2023-04-25T12:03:51;1.58;;;0.80;;
42668;SDS011;29384;42.028;21.388;2023-04-25T12:06:17;3.13;;;0.75;;
42668;SDS011;29384;42.028;21.388;2023-04-25T12:08:58;0.10;;;0.10;;
42668;SDS011;29384;42.028;21.388;2023-04-25T12:11:23;0.10;;;0.10;;
42668;SDS011;29384;42.028;21.388;2023-04-25T12:13:51;0.95;;;0.40;;
42668;SDS011;29384;42.028;21.388;2023-04-25T12:16:16;0.20;;;0.20;;
42668;SDS011;29384;42.028;21.388;2023-04-25T12:18:41;0.20;;;0.20;;
42668;SDS011;29384;42.028;21.388;2023-04-25T12:21:07;0.55;;;0.32;;
42668;SDS011;29384;42.028;21.388;2023-04-25T12:23:32;0.50;;;0.50;;
42668;SDS011;29384;42.028;21.388;2023-04-25T12:25:57;0.52;;;0.10;;
42668;SDS011;29384;42.028;21.388;2023-04-25T12:28:24;0.50;;;0.50;;
42668;SDS011;29384;42.028;21.388;2023-04-25T12:30:56;0.28;;;0.28;;
42668;SDS011;29384;42.028;21.388;2023-04-25T12:33:26;2.47;;;0.50;;
42668;SDS011;29384;42.028;21.388;2023-04-25T12:38:54;0.70;;;0.32;;
42668;SDS011;29384;42.028;21.388;2023-04-25T12:41:19;0.30;;;0.30;;
42668;SDS011;29384;42.028;21.388;2023-04-25T12:43:45;0.85;;;0.30;;
42668;SDS011;29384;42.028;21.388;2023-04-25T12:46:10;0.20;;;0.20;;
42668;SDS011;29384;42.028;21.388;2023-04-25T12:48:35;0.10;;;0.10;;
42668;SDS011;29384;42.028;21.388;2023-04-25T12:54:05;0.35;;;0.20;;
42668;SDS011;29384;42.028;21.388;2023-04-25T12:56:32;0.15;;;0.15;;
42668;SDS011;29384;42.028;21.388;2023-04-25T12:58:57;1.15;;;0.20;;
42668;SDS011;29384;42.028;21.388;2023-04-25T13:01:23;2.17;;;0.30;;
42668;SDS011;29384;42.028;21.388;2023-04-25T13:03:48;0.20;;;0.20;;
42668;SDS011;29384;42.028;21.388;2023-04-25T13:09:16;1.98;;;0.13;;
42668;SDS011;29384;42.028;21.388;2023-04-25T13:11:41;0.20;;;0.20;;
42668;SDS011;29384;42.028;21.388;2023-04-25T13:14:06;0.75;;;0.45;;
42668;SDS011;29384;42.028;21.388;2023-04-25T13:16:32;0.10;;;0.10;;
42668;SDS011;29384;42.028;21.388;2023-04-25T13:18:57;1.13;;;0.60;;
42668;SDS011;29384;42.028;21.388;2023-04-25T13:21:23;0.63;;;0.63;;
42668;SDS011;29384;42.028;21.388;2023-04-25T13:23:48;4.20;;;1.20;;
42668;SDS011;29384;42.028;21.388;2023-04-25T13:26:13;1.20;;;0.17;;
42668;SDS011;29384;42.028;21.388;2023-04-25T13:28:39;6.70;;;0.43;;
42668;SDS011;29384;42.028;21.388;2023-04-25T13:31:05;0.20;;;0.20;;
42668;SDS011;29384;42.028;21.388;2023-04-25T13:33:30;0.43;;;0.20;;
42668;SDS011;29384;42.028;21.388;2023-04-25T13:38:59;1.00;;;0.30;;
42668;SDS011;29384;42.028;21.388;2023-04-25T13:41:24;0.35;;;0.35;;
42668;SDS011;29384;42.028;21.388;2023-04-25T13:43:49;0.85;;;0.20;;
42668;SDS011;29384;42.028;21.388;2023-04-25T13:46:15;0.73;;;0.50;;
42668;SDS011;29384;42.028;21.388;2023-04-25T13:48:40;0.93;;;0.30;;
42668;SDS011;29384;42.028;21.388;2023-04-25T13:54:14;0.20;;;0.20;;
42668;SDS011;29384;42.028;21.388;2023-04-25T13:56:39;0.70;;;0.70;;
42668;SDS011;29384;42.028;21.388;2023-04-25T13:59:07;0.30;;;0.30;;
42668;SDS011;29384;42.028;21.388;2023-04-25T14:01:32;0.52;;;0.17;;
42668;SDS011;29384;42.028;21.388;2023-04-25T14:03:59;0.40;;;0.40;;
42668;SDS011;29384;42.028;21.388;2023-04-25T14:09:27;0.40;;;0.40;;
42668;SDS011;29384;42.028;21.388;2023-04-25T14:11:52;0.68;;;0.68;;
42668;SDS011;29384;42.028;21.388;2023-04-25T14:14:18;2.40;;;0.40;;
42668;SDS011;29384;42.028;21.388;2023-04-25T14:16:44;0.52;;;0.40;;
42668;SDS011;29384;42.028;21.388;2023-04-25T14:19:09;2.38;;;0.52;;
42668;SDS011;29384;42.028;21.388;2023-04-25T14:24:38;8.07;;;0.77;;
42668;SDS011;29384;42.028;21.388;2023-04-25T14:27:03;1.88;;;0.70;;
42668;SDS011;29384;42.028;21.388;2023-04-25T14:29:29;4.72;;;1.92;;
42668;SDS011;29384;42.028;21.388;2023-04-25T14:31:54;5.40;;;2.70;;
42668;SDS011;29384;42.028;21.388;2023-04-25T14:34:19;3.45;;;3.15;;
42668;SDS011;29384;42.028;21.388;2023-04-25T14:36:45;2.67;;;0.77;;
42668;SDS011;29384;42.028;21.388;2023-04-25T14:39:10;0.10;;;0.10;;
42668;SDS011;29384;42.028;21.388;2023-04-25T14:41:37;0.20;;;0.20;;
42668;SDS011;29384;42.028;21.388;2023-04-25T14:44:02;5.20;;;0.38;;
42668;SDS011;29384;42.028;21.388;2023-04-25T14:46:27;0.10;;;0.10;;
42668;SDS011;29384;42.028;21.388;2023-04-25T14:48:53;0.20;;;0.20;;
42668;SDS011;29384;42.028;21.388;2023-04-25T14:54:23;0.90;;;0.10;;
42668;SDS011;29384;42.028;21.388;2023-04-25T14:56:48;1.05;;;0.40;;
42668;SDS011;29384;42.028;21.388;2023-04-25T14:59:13;2.05;;;0.60;;
42668;SDS011;29384;42.028;21.388;2023-04-25T15:01:39;1.85;;;0.45;;
42668;SDS011;29384;42.028;21.388;2023-04-25T15:04:05;0.70;;;0.52;;
42668;SDS011;29384;42.028;21.388;2023-04-25T15:09:33;0.15;;;0.15;;
42668;SDS011;29384;42.028;21.388;2023-04-25T15:11:58;0.10;;;0.10;;
42668;SDS011;29384;42.028;21.388;2023-04-25T15:14:24;1.05;;;0.20;;
42668;SDS011;29384;42.028;21.388;2023-04-25T15:16:49;1.65;;;0.55;;
42668;SDS011;29384;42.028;21.388;2023-04-25T15:19:15;0.75;;;0.20;;
42668;SDS011;29384;42.028;21.388;2023-04-25T15:24:43;0.20;;;0.20;;
42668;SDS011;29384;42.028;21.388;2023-04-25T15:27:08;0.10;;;0.10;;
42668;SDS011;29384;42.028;21.388;2023-04-25T15:29:33;0.32;;;0.32;;
42668;SDS011;29384;42.028;21.388;2023-04-25T15:31:58;0.10;;;0.10;;
42668;SDS011;29384;42.028;21.388;2023-04-25T15:34:24;0.20;;;0.20;;
42668;SDS011;29384;42.028;21.388;2023-04-25T15:40:00;0.20;;;0.20;;
42668;SDS011;29384;42.028;21.388;2023-04-25T15:42:25;2.80;;;0.63;;
42668;SDS011;29384;42.028;21.388;2023-04-25T15:44:51;2.53;;;0.70;;
42668;SDS011;29384;42.028;21.388;2023-04-25T15:47:16;0.40;;;0.40;;
42668;SDS011;29384;42.028;21.388;2023-04-25T15:49:41;4.28;;;0.80;;
42668;SDS011;29384;42.028;21.388;2023-04-25T15:55:09;0.55;;;0.55;;
42668;SDS011;29384;42.028;21.388;2023-04-25T15:57:35;1.92;;;0.30;;
42668;SDS011;29384;42.028;21.388;2023-04-25T16:00:04;0.47;;;0.22;;
42668;SDS011;29384;42.028;21.388;2023-04-25T16:02:35;2.50;;;0.30;;
42668;SDS011;29384;42.028;21.388;2023-04-25T16:05:01;0.75;;;0.32;;
42668;SDS011;29384;42.028;21.388;2023-04-25T16:07:27;0.75;;;0.32;;
42668;SDS011;29384;42.028;21.388;2023-04-25T16:09:52;0.30;;;0.30;;
42668;SDS011;29384;42.028;21.388;2023-04-25T16:12:17;0.63;;;0.47;;
42668;SDS011;29384;42.028;21.388;2023-04-25T16:14:43;0.35;;;0.35;;
42668;SDS011;29384;42.028;21.388;2023-04-25T16:17:08;0.30;;;0.30;;
42668;SDS011;29384;42.028;21.388;2023-04-25T16:19:33;1.65;;;0.73;;
42668;SDS011;29384;42.028;21.388;2023-04-25T16:25:02;2.40;;;0.47;;
42668;SDS011;29384;42.028;21.388;2023-04-25T16:27:27;0.95;;;0.50;;
42668;SDS011;29384;42.028;21.388;2023-04-25T16:29:53;0.32;;;0.20;;
42668;SDS011;29384;42.028;21.388;2023-04-25T16:32:18;2.33;;;0.57;;
42668;SDS011;29384;42.028;21.388;2023-04-25T16:34:44;2.03;;;0.63;;
42668;SDS011;29384;42.028;21.388;2023-04-25T16:40:12;0.55;;;0.55;;
42668;SDS011;29384;42.028;21.388;2023-04-25T16:42:37;0.50;;;0.32;;
42668;SDS011;29384;42.028;21.388;2023-04-25T16:45:02;1.73;;;0.77;;
42668;SDS011;29384;42.028;21.388;2023-04-25T16:47:29;0.45;;;0.45;;
42668;SDS011;29384;42.028;21.388;2023-04-25T16:49:55;0.60;;;0.60;;
42668;SDS011;29384;42.028;21.388;2023-04-25T16:55:24;0.30;;;0.30;;
42668;SDS011;29384;42.028;21.388;2023-04-25T16:57:49;0.22;;;0.22;;
42668;SDS011;29384;42.028;21.388;2023-04-25T17:00:14;2.40;;;0.73;;
42668;SDS011;29384;42.028;21.388;2023-04-25T17:02:40;4.78;;;0.90;;